createdAt,value
2022-09-11T00:00:52.881Z,89.10
2022-09-11T00:02:55.711Z,89.60
2022-09-11T00:04:58.757Z,89.70
2022-09-11T00:07:01.419Z,90.00
2022-09-11T00:09:07.291Z,89.80
2022-09-11T00:11:12.144Z,90.00
2022-09-11T00:13:17.177Z,90.00
2022-09-11T00:15:19.970Z,90.10
2022-09-11T00:17:22.981Z,90.10
2022-09-11T00:19:28.130Z,90.10
2022-09-11T00:21:30.983Z,90.10
2022-09-11T00:23:34.038Z,90.30
2022-09-11T00:25:40.642Z,90.30
2022-09-11T00:27:43.390Z,90.30
2022-09-11T00:29:46.128Z,90.60
2022-09-11T00:31:49.138Z,90.20
2022-09-11T00:33:52.630Z,90.40
2022-09-11T00:35:58.280Z,90.40
2022-09-11T00:38:00.972Z,90.50
2022-09-11T00:40:04.239Z,90.50
2022-09-11T00:42:10.164Z,90.50
2022-09-11T00:44:46.219Z,90.70
2022-09-11T00:46:51.532Z,90.80
2022-09-11T00:48:57.198Z,91.20
2022-09-11T00:51:04.522Z,90.80
2022-09-11T00:53:09.881Z,90.90
2022-09-11T00:55:15.605Z,90.80
2022-09-11T00:57:23.962Z,90.70
2022-09-11T00:59:30.015Z,90.80
2022-09-11T01:01:33.209Z,90.80
2022-09-11T01:03:35.901Z,90.80
2022-09-11T01:05:41.070Z,90.80
2022-09-11T01:07:46.900Z,90.80
2022-09-11T01:09:51.172Z,90.80
2022-09-11T01:12:04.636Z,90.70
2022-09-11T01:14:16.991Z,90.90
2022-09-11T01:16:25.799Z,90.70
2022-09-11T01:18:33.123Z,90.70
2022-09-11T01:20:47.466Z,90.60
2022-09-11T01:23:07.292Z,90.60
2022-09-11T01:25:24.471Z,90.40
2022-09-11T01:27:44.192Z,90.40
2022-09-11T01:29:51.719Z,90.50
2022-09-11T01:32:00.516Z,90.40
2022-09-11T01:34:10.143Z,90.40
2022-09-11T01:36:19.328Z,90.40
2022-09-11T01:38:31.639Z,90.30
2022-09-11T01:40:41.098Z,90.30
2022-09-11T01:42:48.786Z,90.10
2022-09-11T01:44:54.438Z,90.10
2022-09-11T01:46:57.152Z,90.00
2022-09-11T01:49:04.729Z,90.10
2022-09-11T01:51:10.392Z,90.30
2022-09-11T01:53:16.214Z,90.30
2022-09-11T01:55:22.579Z,90.60
2022-09-11T01:57:37.926Z,90.70
2022-09-11T01:59:48.415Z,90.70
2022-09-11T02:01:55.979Z,90.70
2022-09-11T02:04:07.145Z,90.80
2022-09-11T02:06:15.903Z,90.80
2022-09-11T02:08:21.806Z,90.90
2022-09-11T02:10:29.207Z,90.80
2022-09-11T02:12:41.809Z,90.80
2022-09-11T02:14:49.184Z,90.80
2022-09-11T02:16:54.297Z,90.80
2022-09-11T02:19:01.984Z,90.80
2022-09-11T02:21:04.855Z,90.80
2022-09-11T02:23:07.604Z,90.90
2022-09-11T02:25:11.442Z,91.00
2022-09-11T02:27:21.945Z,91.10
2022-09-11T02:29:24.938Z,90.90
2022-09-11T02:31:29.189Z,90.90
2022-09-11T02:33:33.701Z,90.80
2022-09-11T02:35:45.330Z,91.10
2022-09-11T02:37:57.018Z,91.00
2022-09-11T02:40:25.555Z,91.10
2022-09-11T02:42:38.212Z,91.10
2022-09-11T02:44:48.820Z,91.00
2022-09-11T02:47:08.825Z,90.90
2022-09-11T02:49:21.582Z,91.00
2022-09-11T02:51:29.850Z,91.00
2022-09-11T02:53:38.683Z,91.10
2022-09-11T02:55:53.575Z,91.00
2022-09-11T02:58:02.417Z,91.10
2022-09-11T03:00:08.635Z,91.20
2022-09-11T03:02:15.322Z,91.20
2022-09-11T03:04:18.353Z,91.40
2022-09-11T03:06:23.169Z,91.50
2022-09-11T03:08:25.848Z,91.50
2022-09-11T03:10:28.712Z,91.50
2022-09-11T03:12:31.827Z,91.50
2022-09-11T03:14:34.576Z,91.60
2022-09-11T03:16:37.765Z,91.70
2022-09-11T03:18:42.114Z,91.70
2022-09-11T03:20:46.926Z,91.90
2022-09-11T03:22:49.612Z,91.90
2022-09-11T03:24:52.310Z,92.00
2022-09-11T03:26:55.023Z,92.00
2022-09-11T03:28:57.746Z,92.00
2022-09-11T03:31:00.867Z,92.30
2022-09-11T03:33:04.211Z,91.90
2022-09-11T03:35:08.981Z,92.00
2022-09-11T03:37:11.971Z,91.80
2022-09-11T03:39:14.715Z,91.90
2022-09-11T03:41:17.534Z,92.00
2022-09-11T03:43:20.231Z,92.00
2022-09-11T03:45:22.920Z,92.10
2022-09-11T03:47:25.630Z,92.20
2022-09-11T03:49:28.318Z,92.20
2022-09-11T03:51:35.454Z,92.20
2022-09-11T03:53:38.738Z,92.00
2022-09-11T03:55:41.748Z,92.00
2022-09-11T03:57:44.625Z,92.10
2022-09-11T03:59:47.292Z,92.20
2022-09-11T04:01:50.767Z,92.30
2022-09-11T04:03:53.647Z,92.40
2022-09-11T04:06:01.529Z,92.30
2022-09-11T04:08:06.371Z,92.30
2022-09-11T04:10:09.939Z,92.40
2022-09-11T04:12:12.882Z,92.40
2022-09-11T04:14:15.972Z,92.50
2022-09-11T04:16:20.574Z,92.60
2022-09-11T04:18:23.278Z,92.60
2022-09-11T04:20:27.220Z,92.70
2022-09-11T04:22:29.920Z,92.70
2022-09-11T04:24:33.935Z,92.70
2022-09-11T04:26:37.110Z,92.80
2022-09-11T04:28:40.148Z,92.90
2022-09-11T04:30:42.880Z,93.10
2022-09-11T04:32:46.202Z,93.10
2022-09-11T04:34:48.913Z,93.20
2022-09-11T04:36:51.594Z,93.20
2022-09-11T04:38:56.505Z,93.10
2022-09-11T04:41:02.976Z,93.10
2022-09-11T04:43:06.571Z,93.10
2022-09-11T04:45:09.952Z,93.10
2022-09-11T04:47:12.682Z,93.10
2022-09-11T04:49:15.747Z,93.00
2022-09-11T04:51:22.285Z,93.00
2022-09-11T04:53:25.299Z,93.10
2022-09-11T04:55:28.023Z,93.20
2022-09-11T04:57:32.161Z,93.30
2022-09-11T04:59:35.795Z,93.10
2022-09-11T05:01:38.512Z,92.90
2022-09-11T05:03:41.544Z,92.90
2022-09-11T05:05:44.393Z,93.00
2022-09-11T05:07:50.122Z,93.00
2022-09-11T05:09:54.423Z,92.90
2022-09-11T05:11:57.523Z,92.90
2022-09-11T05:14:01.938Z,93.10
2022-09-11T05:16:05.222Z,93.20
2022-09-11T05:18:07.958Z,93.00
2022-09-11T05:20:11.992Z,93.00
2022-09-11T05:22:15.799Z,93.20
2022-09-11T05:24:18.575Z,93.00
2022-09-11T05:26:23.498Z,92.90
2022-09-11T05:28:27.075Z,92.80
2022-09-11T05:30:31.256Z,92.90
2022-09-11T05:32:33.975Z,92.90
2022-09-11T05:34:36.660Z,92.90
2022-09-11T05:36:39.386Z,92.90
2022-09-11T05:38:42.913Z,93.10
2022-09-11T05:40:46.796Z,93.40
2022-09-11T05:42:49.495Z,93.20
2022-09-11T05:44:52.289Z,93.00
2022-09-11T05:46:57.021Z,93.10
2022-09-11T05:48:59.842Z,93.10
2022-09-11T05:51:06.810Z,93.20
2022-09-11T05:53:09.596Z,93.30
2022-09-11T05:55:12.275Z,93.10
2022-09-11T05:57:15.038Z,93.30
2022-09-11T05:59:18.170Z,93.30
2022-09-11T06:01:22.849Z,93.30
2022-09-11T06:03:32.159Z,93.30
2022-09-11T06:05:34.975Z,93.20
2022-09-11T06:07:37.676Z,93.00
2022-09-11T06:09:40.361Z,92.90
2022-09-11T06:11:43.088Z,93.00
2022-09-11T06:13:47.969Z,93.00
2022-09-11T06:15:50.715Z,93.10
2022-09-11T06:17:53.527Z,93.20
2022-09-11T06:19:57.806Z,93.30
2022-09-11T06:22:00.601Z,93.40
2022-09-11T06:24:04.033Z,93.20
2022-09-11T06:26:09.891Z,93.10
2022-09-11T06:28:12.529Z,93.10
2022-09-11T06:30:15.848Z,93.30
2022-09-11T06:32:19.883Z,93.40
2022-09-11T06:34:22.610Z,93.50
2022-09-11T06:36:27.747Z,93.50
2022-09-11T06:38:31.954Z,93.40
2022-09-11T06:40:37.136Z,93.20
2022-09-11T06:42:39.970Z,93.30
2022-09-11T06:44:42.650Z,93.40
2022-09-11T06:46:45.636Z,93.50
2022-09-11T06:48:50.652Z,93.40
2022-09-11T06:50:54.342Z,93.50
2022-09-11T06:52:58.373Z,93.50
2022-09-11T06:55:01.798Z,93.70
2022-09-11T06:57:04.862Z,93.70
2022-09-11T06:59:07.534Z,93.70
2022-09-11T07:01:12.754Z,93.60
2022-09-11T07:03:15.812Z,93.50
2022-09-11T07:05:18.502Z,93.70
2022-09-11T07:07:21.221Z,93.60
2022-09-11T07:09:25.211Z,93.70
2022-09-11T07:11:28.613Z,93.90
2022-09-11T07:13:36.760Z,94.00
2022-09-11T07:15:40.177Z,93.90
2022-09-11T07:17:42.885Z,93.90
2022-09-11T07:19:45.574Z,94.00
2022-09-11T07:21:48.277Z,93.80
2022-09-11T07:23:52.897Z,93.90
2022-09-11T07:25:56.906Z,94.10
2022-09-11T07:27:59.571Z,93.90
2022-09-11T07:30:03.201Z,93.90
2022-09-11T07:32:06.002Z,93.80
2022-09-11T07:34:08.688Z,93.80
2022-09-11T07:36:12.744Z,93.60
2022-09-11T07:38:15.414Z,93.80
2022-09-11T07:40:18.909Z,93.80
2022-09-11T07:42:23.114Z,93.80
2022-09-11T07:44:25.784Z,93.90
2022-09-11T07:46:29.885Z,93.80
2022-09-11T07:48:33.188Z,93.60
2022-09-11T07:50:35.883Z,93.80
2022-09-11T07:52:38.541Z,93.90
2022-09-11T07:54:41.327Z,93.90
2022-09-11T07:56:44.069Z,93.90
2022-09-11T07:58:49.842Z,93.70
2022-09-11T08:00:59.239Z,93.50
2022-09-11T08:03:01.987Z,93.60
2022-09-11T08:05:05.482Z,93.70
2022-09-11T08:07:08.289Z,93.60
2022-09-11T08:09:13.163Z,93.70
2022-09-11T08:11:19.043Z,93.40
2022-09-11T08:13:21.754Z,93.50
2022-09-11T08:15:26.822Z,93.60
2022-09-11T08:17:29.538Z,93.60
2022-09-11T08:19:32.737Z,93.50
2022-09-11T08:21:36.000Z,93.40
2022-09-11T08:23:41.462Z,93.50
2022-09-11T08:25:44.598Z,93.30
2022-09-11T08:27:47.283Z,93.30
2022-09-11T08:29:49.962Z,93.30
2022-09-11T08:32:00.322Z,93.50
2022-09-11T08:34:05.245Z,93.40
2022-09-11T08:36:10.704Z,93.30
2022-09-11T08:38:14.098Z,93.30
2022-09-11T08:40:17.078Z,93.00
2022-09-11T08:42:26.299Z,93.30
2022-09-11T08:44:35.136Z,93.20
2022-09-11T08:46:46.616Z,93.20
2022-09-11T08:48:57.637Z,93.10
2022-09-11T08:51:01.423Z,93.10
2022-09-11T08:53:05.650Z,93.10
2022-09-11T08:55:17.163Z,93.20
2022-09-11T08:57:24.204Z,93.10
2022-09-11T08:59:42.130Z,93.20
2022-09-11T09:01:54.845Z,93.10
2022-09-11T09:04:16.822Z,92.90
2022-09-11T09:06:37.735Z,92.80
2022-09-11T09:08:50.380Z,92.30
2022-09-11T09:10:55.661Z,92.10
2022-09-11T09:13:08.466Z,92.40
2022-09-11T09:15:29.321Z,92.40
2022-09-11T09:17:42.102Z,92.50
2022-09-11T09:19:51.318Z,92.80
2022-09-11T09:22:02.837Z,92.70
2022-09-11T09:24:20.476Z,92.50
2022-09-11T09:26:33.242Z,91.80
2022-09-11T09:28:44.547Z,91.40
2022-09-11T09:30:52.496Z,91.10
2022-09-11T09:33:01.948Z,91.30
2022-09-11T09:35:18.585Z,91.60
2022-09-11T09:37:23.446Z,91.20
2022-09-11T09:39:26.567Z,90.70
2022-09-11T09:41:49.735Z,91.00
2022-09-11T09:43:59.398Z,90.90
2022-09-11T09:46:16.383Z,91.00
2022-09-11T09:48:19.514Z,91.10
2022-09-11T09:50:31.009Z,90.90
2022-09-11T09:52:35.950Z,91.00
2022-09-11T09:54:40.236Z,91.10
2022-09-11T09:56:45.355Z,91.00
2022-09-11T09:59:00.896Z,91.10
2022-09-11T10:01:04.004Z,91.30
2022-09-11T10:03:20.434Z,91.40
2022-09-11T10:05:29.207Z,90.90
2022-09-11T10:07:32.442Z,91.10
2022-09-11T10:09:35.646Z,91.10
2022-09-11T10:11:38.398Z,91.20
2022-09-11T10:13:43.626Z,91.20
2022-09-11T10:15:49.238Z,90.80
2022-09-11T10:18:00.563Z,90.80
2022-09-11T10:20:23.594Z,90.90
2022-09-11T10:22:30.191Z,90.90
2022-09-11T10:24:34.124Z,90.60
2022-09-11T10:26:45.803Z,90.40
2022-09-11T10:28:49.219Z,90.40
2022-09-11T10:31:00.128Z,90.50
2022-09-11T10:33:10.822Z,90.40
2022-09-11T10:35:14.051Z,90.70
2022-09-11T10:37:25.370Z,90.90
2022-09-11T10:39:33.662Z,90.60
2022-09-11T10:41:36.831Z,90.30
2022-09-11T10:43:47.220Z,90.10
2022-09-11T10:46:03.321Z,90.10
2022-09-11T10:48:17.307Z,90.50
2022-09-11T10:50:24.633Z,89.90
2022-09-11T10:52:27.367Z,89.10
2022-09-11T10:54:44.581Z,89.20
2022-09-11T10:57:03.259Z,89.60
2022-09-11T10:59:12.837Z,89.70
2022-09-11T11:01:15.866Z,89.40
2022-09-11T11:03:23.200Z,89.20
2022-09-11T11:05:31.573Z,89.00
2022-09-11T11:07:48.677Z,88.70
2022-09-11T11:10:02.428Z,88.40
2022-09-11T11:12:31.915Z,88.20
2022-09-11T11:14:57.482Z,88.00
2022-09-11T11:17:06.965Z,88.10
2022-09-11T11:19:30.233Z,88.30
2022-09-11T11:21:44.586Z,88.00
2022-09-11T11:24:02.328Z,88.20
2022-09-11T11:26:18.924Z,88.30
2022-09-11T11:28:51.406Z,89.00
2022-09-11T11:31:05.965Z,88.70
2022-09-11T11:33:29.051Z,88.40
2022-09-11T11:35:38.056Z,89.10
2022-09-11T11:37:42.930Z,89.10
2022-09-11T11:39:55.514Z,89.10
2022-09-11T11:42:11.634Z,88.70
2022-09-11T11:44:18.624Z,89.10
2022-09-11T11:46:28.444Z,89.40
2022-09-11T11:48:38.437Z,89.50
2022-09-11T11:50:44.819Z,90.20
2022-09-11T11:52:57.158Z,90.20
2022-09-11T11:55:14.436Z,90.00
2022-09-11T11:57:24.459Z,90.20
2022-09-11T11:59:33.637Z,90.00
2022-09-11T12:01:43.197Z,89.60
2022-09-11T12:03:50.751Z,89.40
2022-09-11T12:05:54.437Z,89.50
2022-09-11T12:07:57.390Z,89.50
2022-09-11T12:10:02.676Z,89.90
2022-09-11T12:12:08.331Z,90.10
2022-09-11T12:14:27.931Z,90.00
2022-09-11T12:16:34.703Z,89.70
2022-09-11T12:18:38.680Z,89.40
2022-09-11T12:20:42.692Z,89.30
2022-09-11T12:22:46.875Z,89.20
2022-09-11T12:24:59.885Z,89.40
2022-09-11T12:27:49.121Z,87.40
2022-09-11T12:29:58.529Z,88.00
2022-09-11T12:32:40.513Z,87.70
2022-09-11T12:35:12.259Z,88.00
2022-09-11T12:37:20.346Z,88.40
2022-09-11T12:39:30.587Z,87.40
2022-09-11T12:41:35.194Z,87.10
2022-09-11T12:43:49.365Z,87.30
2022-09-11T12:45:53.527Z,88.00
2022-09-11T12:48:02.845Z,86.90
2022-09-11T12:50:17.670Z,88.40
2022-09-11T12:52:28.854Z,87.90
2022-09-11T12:54:38.380Z,86.90
2022-09-11T12:56:48.613Z,85.30
2022-09-11T12:58:56.215Z,86.30
2022-09-11T13:01:08.532Z,86.40
2022-09-11T13:03:18.935Z,87.00
2022-09-11T13:05:26.806Z,86.60
2022-09-11T13:07:36.515Z,86.00
2022-09-11T13:09:43.001Z,85.50
2022-09-11T13:11:49.176Z,84.90
2022-09-11T13:13:52.431Z,85.50
2022-09-11T13:15:58.654Z,84.80
2022-09-11T13:18:03.180Z,85.00
2022-09-11T13:20:22.494Z,85.30
2022-09-11T13:22:28.307Z,85.30
2022-09-11T13:24:32.621Z,84.00
2022-09-11T13:26:38.379Z,83.70
2022-09-11T13:28:46.861Z,84.90
2022-09-11T13:30:55.239Z,85.20
2022-09-11T13:33:07.913Z,84.80
2022-09-11T13:35:16.931Z,82.80
2022-09-11T13:37:33.822Z,84.10
2022-09-11T13:39:41.040Z,84.50
2022-09-11T13:41:44.695Z,84.10
2022-09-11T13:43:50.896Z,84.00
2022-09-11T13:46:12.130Z,83.30
2022-09-11T13:48:22.792Z,83.40
2022-09-11T13:50:25.999Z,82.90
2022-09-11T13:52:33.219Z,83.30
2022-09-11T13:54:42.698Z,83.50
2022-09-11T13:56:48.073Z,83.40
2022-09-11T13:58:53.612Z,83.70
2022-09-11T14:00:56.803Z,84.30
2022-09-11T14:03:00.324Z,84.00
2022-09-11T14:05:12.546Z,84.60
2022-09-11T14:07:21.602Z,84.70
2022-09-11T14:09:24.589Z,84.30
2022-09-11T14:11:30.010Z,84.50
2022-09-11T14:13:40.473Z,83.90
2022-09-11T14:15:46.289Z,84.60
2022-09-11T14:17:49.362Z,84.60
2022-09-11T14:20:00.329Z,84.40
2022-09-11T14:22:15.862Z,83.90
2022-09-11T14:24:29.231Z,82.90
2022-09-11T14:26:41.853Z,82.10
2022-09-11T14:29:00.879Z,82.20
2022-09-11T14:31:08.704Z,83.40
2022-09-11T14:33:24.150Z,82.20
2022-09-11T14:35:26.991Z,83.20
2022-09-11T14:37:34.612Z,83.20
2022-09-11T14:39:40.468Z,82.70
2022-09-11T14:41:45.064Z,81.90
2022-09-11T14:43:49.640Z,82.10
2022-09-11T14:45:54.524Z,83.10
2022-09-11T14:47:57.288Z,82.50
2022-09-11T14:50:00.805Z,81.70
2022-09-11T14:52:04.039Z,82.50
2022-09-11T14:54:11.664Z,82.20
2022-09-11T14:56:14.374Z,82.60
2022-09-11T14:58:17.116Z,82.50
2022-09-11T15:00:20.962Z,82.40
2022-09-11T15:02:25.820Z,82.40
2022-09-11T15:04:31.191Z,82.70
2022-09-11T15:06:34.033Z,83.30
2022-09-11T15:08:38.759Z,83.50
2022-09-11T15:10:45.152Z,82.70
2022-09-11T15:12:49.075Z,82.20
2022-09-11T15:14:57.097Z,82.10
2022-09-11T15:17:03.139Z,81.50
2022-09-11T15:19:08.822Z,81.90
2022-09-11T15:21:11.611Z,81.20
2022-09-11T15:23:16.442Z,81.60
2022-09-11T15:25:19.156Z,82.10
2022-09-11T15:27:25.043Z,82.50
2022-09-11T15:29:31.612Z,82.60
2022-09-11T15:31:34.655Z,82.30
2022-09-11T15:33:37.631Z,82.80
2022-09-11T15:35:40.511Z,82.70
2022-09-11T15:37:43.535Z,82.50
2022-09-11T15:39:46.469Z,83.30
2022-09-11T15:41:49.393Z,82.70
2022-09-11T15:43:54.052Z,83.20
2022-09-11T15:45:57.355Z,83.10
2022-09-11T15:48:00.330Z,83.50
2022-09-11T15:50:03.196Z,83.70
2022-09-11T15:52:06.254Z,83.40
2022-09-11T15:54:10.926Z,83.40
2022-09-11T15:56:15.738Z,82.80
2022-09-11T15:58:18.526Z,82.90
2022-09-11T16:00:22.821Z,82.80
2022-09-11T16:02:26.035Z,82.90
2022-09-11T16:04:32.673Z,82.70
2022-09-11T16:06:38.692Z,82.60
2022-09-11T16:08:41.429Z,82.10
2022-09-11T16:10:44.322Z,82.30
2022-09-11T16:12:48.038Z,82.10
2022-09-11T16:14:52.532Z,82.00
2022-09-11T16:16:58.304Z,81.90
2022-09-11T16:19:01.770Z,81.80
2022-09-11T16:21:06.487Z,82.10
2022-09-11T16:23:09.496Z,81.90
2022-09-11T16:25:12.304Z,81.90
2022-09-11T16:27:15.112Z,81.90
2022-09-11T16:29:19.703Z,82.10
2022-09-11T16:31:22.599Z,81.90
2022-09-11T16:33:26.781Z,82.70
2022-09-11T16:35:32.015Z,82.60
2022-09-11T16:37:35.396Z,82.60
2022-09-11T16:39:38.190Z,82.80
2022-09-11T16:41:41.684Z,82.60
2022-09-11T16:43:46.607Z,82.30
2022-09-11T16:45:53.432Z,82.30
2022-09-11T16:47:57.102Z,82.60
2022-09-11T16:50:07.353Z,82.60
2022-09-11T16:52:11.327Z,82.50
2022-09-11T16:54:14.437Z,82.80
2022-09-11T16:56:19.578Z,82.90
2022-09-11T16:58:23.097Z,82.70
2022-09-11T17:00:25.930Z,82.80
2022-09-11T17:02:28.646Z,82.60
2022-09-11T17:04:31.547Z,82.80
2022-09-11T17:06:35.625Z,82.80
2022-09-11T17:08:39.276Z,82.60
2022-09-11T17:10:44.234Z,82.80
2022-09-11T17:12:46.948Z,82.80
2022-09-11T17:14:50.046Z,82.60
2022-09-11T17:16:52.802Z,82.70
2022-09-11T17:18:57.995Z,82.70
2022-09-11T17:21:05.403Z,82.30
2022-09-11T17:23:11.138Z,82.20
2022-09-11T17:25:14.023Z,82.20
2022-09-11T17:27:16.937Z,82.10
2022-09-11T17:29:20.290Z,82.00
2022-09-11T17:31:23.616Z,82.30
2022-09-11T17:33:28.881Z,82.20
2022-09-11T17:35:33.965Z,82.30
2022-09-11T17:37:37.146Z,82.30
2022-09-11T17:39:42.391Z,82.20
2022-09-11T17:41:45.294Z,82.30
2022-09-11T17:43:48.882Z,82.10
2022-09-11T17:45:52.241Z,82.20
2022-09-11T17:47:55.623Z,82.60
2022-09-11T17:49:58.354Z,82.50
2022-09-11T17:52:01.133Z,82.90
2022-09-11T17:54:03.908Z,82.90
2022-09-11T17:56:10.710Z,83.00
2022-09-11T17:58:13.407Z,83.40
2022-09-11T18:00:16.554Z,83.60
2022-09-11T18:02:19.751Z,83.70
2022-09-11T18:04:22.648Z,83.50
2022-09-11T18:06:28.144Z,83.60
2022-09-11T18:08:33.535Z,83.70
2022-09-11T18:10:36.355Z,83.70
2022-09-11T18:12:40.446Z,83.60
2022-09-11T18:14:43.801Z,83.70
2022-09-11T18:16:47.854Z,83.70
2022-09-11T18:18:50.650Z,83.60
2022-09-11T18:20:55.319Z,83.70
2022-09-11T18:22:59.752Z,83.50
2022-09-11T18:25:02.578Z,83.40
2022-09-11T18:27:06.652Z,83.30
2022-09-11T18:29:13.281Z,83.30
2022-09-11T18:31:16.101Z,83.30
2022-09-11T18:33:18.866Z,83.30
2022-09-11T18:35:21.584Z,83.20
2022-09-11T18:37:24.496Z,83.10
2022-09-11T18:39:27.444Z,82.70
2022-09-11T18:41:35.002Z,83.30
2022-09-11T18:43:37.690Z,83.50
2022-09-11T18:45:42.014Z,83.70
2022-09-11T18:47:44.861Z,83.70
2022-09-11T18:49:49.023Z,83.70
2022-09-11T18:51:51.999Z,84.30
2022-09-11T18:53:56.193Z,84.50
2022-09-11T18:56:00.456Z,84.80
2022-09-11T18:58:03.660Z,84.70
2022-09-11T19:00:07.556Z,84.60
2022-09-11T19:02:13.793Z,84.40
2022-09-11T19:04:16.880Z,84.70
2022-09-11T19:06:21.931Z,84.70
2022-09-11T19:08:24.703Z,84.60
2022-09-11T19:10:29.357Z,84.70
2022-09-11T19:12:32.410Z,84.80
2022-09-11T19:14:36.613Z,84.60
2022-09-11T19:16:41.369Z,84.80
2022-09-11T19:18:45.543Z,84.90
2022-09-11T19:21:00.199Z,85.00
2022-09-11T19:23:04.447Z,84.90
2022-09-11T19:25:10.035Z,84.70
2022-09-11T19:27:13.954Z,84.90
2022-09-11T19:29:20.862Z,85.10
2022-09-11T19:31:27.127Z,85.00
2022-09-11T19:33:31.445Z,85.00
2022-09-11T19:35:35.620Z,84.50
2022-09-11T19:37:38.448Z,84.90
2022-09-11T19:39:41.466Z,85.10
2022-09-11T19:41:45.057Z,85.10
2022-09-11T19:43:48.900Z,85.10
2022-09-11T19:45:51.630Z,85.00
2022-09-11T19:47:54.671Z,85.00
2022-09-11T19:50:00.190Z,85.10
2022-09-11T19:52:04.644Z,84.90
2022-09-11T19:54:07.654Z,84.80
2022-09-11T19:56:12.063Z,84.60
2022-09-11T19:58:14.729Z,84.60
2022-09-11T20:00:18.201Z,84.60
2022-09-11T20:02:20.991Z,84.50
2022-09-11T20:04:23.824Z,84.30
2022-09-11T20:06:28.789Z,84.50
2022-09-11T20:08:32.839Z,84.40
2022-09-11T20:10:35.906Z,84.20
2022-09-11T20:12:38.789Z,84.60
2022-09-11T20:14:42.781Z,84.70
2022-09-11T20:16:45.734Z,84.60
2022-09-11T20:18:48.415Z,84.50
2022-09-11T20:20:51.102Z,84.40
2022-09-11T20:22:55.086Z,84.20
2022-09-11T20:25:00.477Z,84.10
2022-09-11T20:27:03.332Z,84.10
2022-09-11T20:29:07.884Z,84.20
2022-09-11T20:31:14.701Z,84.10
2022-09-11T20:33:17.427Z,84.10
2022-09-11T20:35:20.471Z,84.10
2022-09-11T20:37:23.166Z,84.00
2022-09-11T20:39:25.849Z,83.90
2022-09-11T20:41:32.203Z,83.70
2022-09-11T20:43:35.050Z,84.00
2022-09-11T20:45:37.899Z,84.40
2022-09-11T20:47:40.627Z,84.60
2022-09-11T20:49:45.191Z,84.60
2022-09-11T20:51:48.003Z,84.50
2022-09-11T20:53:50.992Z,84.50
2022-09-11T20:55:53.785Z,84.40
2022-09-11T20:58:00.545Z,84.50
2022-09-11T21:00:04.614Z,84.60
2022-09-11T21:02:07.855Z,84.60
2022-09-11T21:04:11.483Z,84.70
2022-09-11T21:06:14.590Z,84.50
2022-09-11T21:08:17.356Z,84.20
2022-09-11T21:10:20.172Z,84.30
2022-09-11T21:12:23.212Z,84.60
2022-09-11T21:14:27.445Z,84.50
2022-09-11T21:16:30.225Z,84.50
2022-09-11T21:18:32.976Z,84.30
2022-09-11T21:20:35.779Z,84.10
2022-09-11T21:22:38.449Z,84.10
2022-09-11T21:24:42.983Z,84.00
2022-09-11T21:26:46.023Z,83.90
2022-09-11T21:28:48.879Z,83.60
2022-09-11T21:30:52.933Z,83.70
2022-09-11T21:32:55.921Z,83.70
2022-09-11T21:34:58.645Z,83.70
2022-09-11T21:37:01.310Z,83.60
2022-09-11T21:39:04.965Z,83.80
2022-09-11T21:41:09.364Z,83.90
2022-09-11T21:43:12.064Z,84.10
2022-09-11T21:45:14.911Z,83.80
2022-09-11T21:47:19.166Z,83.80
2022-09-11T21:49:21.896Z,83.80
2022-09-11T21:51:24.634Z,83.70
2022-09-11T21:53:27.472Z,83.70
2022-09-11T21:55:30.370Z,83.70
2022-09-11T21:57:33.148Z,83.80
2022-09-11T21:59:35.981Z,83.90
2022-09-11T22:01:38.695Z,83.90
2022-09-11T22:03:42.747Z,83.80
2022-09-11T22:05:48.685Z,83.90
2022-09-11T22:07:51.407Z,83.90
2022-09-11T22:09:54.097Z,83.90
2022-09-11T22:11:59.774Z,84.00
2022-09-11T22:14:02.768Z,83.90
2022-09-11T22:16:08.705Z,83.90
2022-09-11T22:18:12.427Z,83.90
2022-09-11T22:20:16.546Z,83.70
2022-09-11T22:22:19.453Z,83.60
2022-09-11T22:24:22.130Z,83.70
2022-09-11T22:26:24.906Z,83.60
2022-09-11T22:28:27.929Z,83.50
2022-09-11T22:30:30.697Z,83.60
2022-09-11T22:32:33.452Z,83.80
2022-09-11T22:34:37.335Z,83.90
2022-09-11T22:36:41.706Z,83.80
2022-09-11T22:38:44.706Z,84.00
2022-09-11T22:40:53.236Z,84.00
2022-09-11T22:42:55.966Z,83.70
2022-09-11T22:44:58.648Z,83.70
2022-09-11T22:47:01.333Z,83.40
2022-09-11T22:49:04.791Z,83.30
2022-09-11T22:51:07.552Z,83.20
2022-09-11T22:53:11.782Z,83.20
2022-09-11T22:55:14.901Z,83.20
2022-09-11T22:57:17.682Z,82.90
2022-09-11T22:59:20.347Z,83.10
2022-09-11T23:01:23.324Z,83.30
2022-09-11T23:03:26.020Z,83.50
2022-09-11T23:05:46.549Z,83.90
2022-09-11T23:07:49.888Z,84.80
2022-09-11T23:09:53.890Z,84.20
2022-09-11T23:11:56.593Z,84.40
2022-09-11T23:13:59.270Z,84.40
2022-09-11T23:16:10.738Z,84.20
2022-09-11T23:18:13.445Z,84.40
2022-09-11T23:20:16.638Z,84.40
2022-09-11T23:22:19.319Z,84.20
2022-09-11T23:24:22.066Z,84.10
2022-09-11T23:26:28.691Z,84.10
2022-09-11T23:28:31.403Z,84.10
2022-09-11T23:30:34.125Z,84.10
2022-09-11T23:32:41.675Z,83.90
2022-09-11T23:34:44.754Z,84.00
2022-09-11T23:36:47.438Z,84.00
2022-09-11T23:38:51.100Z,83.90
2022-09-11T23:40:53.781Z,83.80
2022-09-11T23:42:58.550Z,83.80
2022-09-11T23:45:01.374Z,83.70
2022-09-11T23:47:04.192Z,83.50
2022-09-11T23:49:07.361Z,83.40
2022-09-11T23:51:10.742Z,83.50
2022-09-11T23:53:13.503Z,83.40
2022-09-11T23:55:17.362Z,83.20
2022-09-11T23:57:20.087Z,83.20
2022-09-11T23:59:24.122Z,83.00
